sensor_id;sensor_type;location;lat;lon;timestamp;pressure;altitude;pressure_sealevel;temperature;humidity
62418;BME280;48456;54.242;10.280;2023-02-11T00:01:55;102445.06;;;3.56;100.00
62418;BME280;48456;54.242;10.280;2023-02-11T00:04:22;102446.94;;;3.58;100.00
62418;BME280;48456;54.242;10.280;2023-02-11T00:06:48;102435.53;;;3.58;100.00
62418;BME280;48456;54.242;10.280;2023-02-11T00:09:14;102435.72;;;3.61;100.00
62418;BME280;48456;54.242;10.280;2023-02-11T00:11:41;102433.94;;;3.60;100.00
62418;BME280;48456;54.242;10.280;2023-02-11T00:16:55;102427.03;;;3.62;100.00
62418;BME280;48456;54.242;10.280;2023-02-11T00:19:21;102427.19;;;3.65;100.00
62418;BME280;48456;54.242;10.280;2023-02-11T00:22:15;102428.09;;;3.66;100.00
62418;BME280;48456;54.242;10.280;2023-02-11T00:24:41;102425.56;;;3.67;100.00
62418;BME280;48456;54.242;10.280;2023-02-11T00:30:29;102424.81;;;3.70;100.00
62418;BME280;48456;54.242;10.280;2023-02-11T00:32:59;102413.44;;;3.69;100.00
62418;BME280;48456;54.242;10.280;2023-02-11T00:35:37;102410.00;;;3.70;100.00
62418;BME280;48456;54.242;10.280;2023-02-11T00:38:04;102407.47;;;3.72;100.00
62418;BME280;48456;54.242;10.280;2023-02-11T00:43:24;102384.22;;;3.78;100.00
62418;BME280;48456;54.242;10.280;2023-02-11T00:46:00;102381.81;;;3.83;100.00
62418;BME280;48456;54.242;10.280;2023-02-11T00:48:30;102380.19;;;3.85;100.00
62418;BME280;48456;54.242;10.280;2023-02-11T00:50:59;102372.34;;;3.85;100.00
62418;BME280;48456;54.242;10.280;2023-02-11T00:53:50;102370.75;;;3.88;100.00
62418;BME280;48456;54.242;10.280;2023-02-11T00:56:17;102361.09;;;3.87;100.00
62418;BME280;48456;54.242;10.280;2023-02-11T00:58:55;102355.13;;;3.90;100.00
62418;BME280;48456;54.242;10.280;2023-02-11T01:01:27;102342.25;;;3.95;100.00
62418;BME280;48456;54.242;10.280;2023-02-11T01:17:06;102365.06;;;4.15;100.00
62418;BME280;48456;54.242;10.280;2023-02-11T01:19:32;102363.63;;;4.22;100.00
62418;BME280;48456;54.242;10.280;2023-02-11T01:25:23;102352.59;;;4.29;100.00
62418;BME280;48456;54.242;10.280;2023-02-11T01:37:58;102388.34;;;4.47;100.00
62418;BME280;48456;54.242;10.280;2023-02-11T01:40:45;102387.53;;;4.48;100.00
62418;BME280;48456;54.242;10.280;2023-02-11T01:47:15;102397.34;;;4.52;100.00
62418;BME280;48456;54.242;10.280;2023-02-11T01:53:09;102383.47;;;4.55;100.00
62418;BME280;48456;54.242;10.280;2023-02-11T01:56:19;102381.03;;;4.60;100.00
62418;BME280;48456;54.242;10.280;2023-02-11T01:59:27;102372.38;;;4.61;100.00
62418;BME280;48456;54.242;10.280;2023-02-11T02:08:08;102369.06;;;4.65;100.00
62418;BME280;48456;54.242;10.280;2023-02-11T02:10:52;102376.97;;;4.66;100.00
62418;BME280;48456;54.242;10.280;2023-02-11T02:14:04;102367.53;;;4.70;100.00
62418;BME280;48456;54.242;10.280;2023-02-11T02:16:32;102387.53;;;4.68;100.00
62418;BME280;48456;54.242;10.280;2023-02-11T02:19:24;102383.28;;;4.70;100.00
62418;BME280;48456;54.242;10.280;2023-02-11T02:27:44;102363.25;;;4.72;100.00
62418;BME280;48456;54.242;10.280;2023-02-11T02:36:18;102338.97;;;4.76;100.00
62418;BME280;48456;54.242;10.280;2023-02-11T02:44:46;102310.13;;;4.76;100.00
62418;BME280;48456;54.242;10.280;2023-02-11T02:50:17;102323.66;;;4.86;100.00
62418;BME280;48456;54.242;10.280;2023-02-11T03:10:29;102292.06;;;5.04;100.00
62418;BME280;48456;54.242;10.280;2023-02-11T03:13:41;102303.69;;;5.09;100.00
62418;BME280;48456;54.242;10.280;2023-02-11T03:22:19;102293.06;;;5.06;100.00
62418;BME280;48456;54.242;10.280;2023-02-11T03:24:47;102300.09;;;5.07;100.00
62418;BME280;48456;54.242;10.280;2023-02-11T03:27:56;102298.31;;;5.06;100.00
62418;BME280;48456;54.242;10.280;2023-02-11T03:39:28;102301.16;;;5.12;100.00
62418;BME280;48456;54.242;10.280;2023-02-11T03:42:12;102296.84;;;5.13;100.00
62418;BME280;48456;54.242;10.280;2023-02-11T03:44:52;102296.84;;;5.13;100.00
62418;BME280;48456;54.242;10.280;2023-02-11T03:47:40;102309.88;;;5.11;100.00
62418;BME280;48456;54.242;10.280;2023-02-11T03:50:09;102328.31;;;5.13;100.00
62418;BME280;48456;54.242;10.280;2023-02-11T03:52:37;102332.56;;;5.11;100.00
62418;BME280;48456;54.242;10.280;2023-02-11T03:55:08;102335.28;;;5.12;100.00
62418;BME280;48456;54.242;10.280;2023-02-11T03:57:36;102337.03;;;5.12;100.00
62418;BME280;48456;54.242;10.280;2023-02-11T04:00:03;102327.47;;;5.14;100.00
62418;BME280;48456;54.242;10.280;2023-02-11T04:02:30;102338.81;;;5.13;100.00
62418;BME280;48456;54.242;10.280;2023-02-11T04:04:58;102334.41;;;5.12;100.00
62418;BME280;48456;54.242;10.280;2023-02-11T04:07:25;102340.53;;;5.12;100.00
62418;BME280;48456;54.242;10.280;2023-02-11T04:09:51;102337.03;;;5.12;100.00
62418;BME280;48456;54.242;10.280;2023-02-11T04:12:18;102340.53;;;5.12;100.00
62418;BME280;48456;54.242;10.280;2023-02-11T04:14:45;102345.75;;;5.12;100.00
62418;BME280;48456;54.242;10.280;2023-02-11T04:17:11;102338.81;;;5.13;100.00
62418;BME280;48456;54.242;10.280;2023-02-11T04:19:39;102323.91;;;5.12;100.00
62418;BME280;48456;54.242;10.280;2023-02-11T04:22:06;102333.56;;;5.13;100.00
62418;BME280;48456;54.242;10.280;2023-02-11T04:24:32;102327.41;;;5.12;100.00
62418;BME280;48456;54.242;10.280;2023-02-11T04:26:58;102325.69;;;5.13;100.00
62418;BME280;48456;54.242;10.280;2023-02-11T04:29:25;102310.81;;;5.13;100.00
62418;BME280;48456;54.242;10.280;2023-02-11T04:31:51;102309.94;;;5.13;100.00
62418;BME280;48456;54.242;10.280;2023-02-11T04:34:18;102311.81;;;5.15;100.00
62418;BME280;48456;54.242;10.280;2023-02-11T04:40:07;102303.09;;;5.16;100.00
62418;BME280;48456;54.242;10.280;2023-02-11T04:42:45;102307.50;;;5.17;100.00
62418;BME280;48456;54.242;10.280;2023-02-11T04:45:30;102310.19;;;5.19;100.00
62418;BME280;48456;54.242;10.280;2023-02-11T04:47:56;102318.28;;;5.24;100.00
62418;BME280;48456;54.242;10.280;2023-02-11T04:50:23;102306.06;;;5.24;100.00
62418;BME280;48456;54.242;10.280;2023-02-11T05:09:39;102256.50;;;5.32;100.00
62418;BME280;48456;54.242;10.280;2023-02-11T05:12:20;102247.72;;;5.31;100.00
62418;BME280;48456;54.242;10.280;2023-02-11T05:15:05;102246.78;;;5.29;100.00
62418;BME280;48456;54.242;10.280;2023-02-11T05:17:41;102252.81;;;5.27;100.00
62418;BME280;48456;54.242;10.280;2023-02-11T05:20:19;102244.88;;;5.25;100.00
62418;BME280;48456;54.242;10.280;2023-02-11T05:22:55;102247.50;;;5.25;100.00
62418;BME280;48456;54.242;10.280;2023-02-11T05:32:08;102221.41;;;5.28;100.00
62418;BME280;48456;54.242;10.280;2023-02-11T05:34:43;102232.84;;;5.30;100.00
62418;BME280;48456;54.242;10.280;2023-02-11T05:37:25;102248.66;;;5.32;100.00
62418;BME280;48456;54.242;10.280;2023-02-11T05:39:54;102262.78;;;5.36;100.00
62418;BME280;48456;54.242;10.280;2023-02-11T05:42:24;102277.75;;;5.38;100.00
62418;BME280;48456;54.242;10.280;2023-02-11T05:51:32;102291.84;;;5.40;100.00
62418;BME280;48456;54.242;10.280;2023-02-11T05:53:58;102299.84;;;5.43;100.00
62418;BME280;48456;54.242;10.280;2023-02-11T06:03:04;102308.53;;;5.42;100.00
62418;BME280;48456;54.242;10.280;2023-02-11T06:05:31;102302.47;;;5.43;100.00
62418;BME280;48456;54.242;10.280;2023-02-11T06:07:57;102299.78;;;5.42;100.00
62418;BME280;48456;54.242;10.280;2023-02-11T06:13:46;102295.34;;;5.41;100.00
62418;BME280;48456;54.242;10.280;2023-02-11T06:16:12;102311.09;;;5.41;100.00
62418;BME280;48456;54.242;10.280;2023-02-11T06:18:39;102320.72;;;5.40;100.00
62418;BME280;48456;54.242;10.280;2023-02-11T06:21:06;102318.94;;;5.39;100.00
62418;BME280;48456;54.242;10.280;2023-02-11T06:30:31;102310.28;;;5.42;100.00
62418;BME280;48456;54.242;10.280;2023-02-11T06:33:10;102310.34;;;5.43;100.00
62418;BME280;48456;54.242;10.280;2023-02-11T06:35:39;102312.13;;;5.44;100.00
62418;BME280;48456;54.242;10.280;2023-02-11T06:38:06;102306.88;;;5.44;100.00
62418;BME280;48456;54.242;10.280;2023-02-11T06:40:32;102320.94;;;5.46;100.00
62418;BME280;48456;54.242;10.280;2023-02-11T06:45:59;102322.81;;;5.49;100.00
62418;BME280;48456;54.242;10.280;2023-02-11T06:48:25;102325.50;;;5.51;100.00
62418;BME280;48456;54.242;10.280;2023-02-11T06:50:51;102322.94;;;5.52;100.00
62418;BME280;48456;54.242;10.280;2023-02-11T06:53:18;102318.53;;;5.51;100.00
62418;BME280;48456;54.242;10.280;2023-02-11T06:55:44;102327.31;;;5.52;100.00
62418;BME280;48456;54.242;10.280;2023-02-11T06:58:10;102327.41;;;5.55;100.00
62418;BME280;48456;54.242;10.280;2023-02-11T07:00:37;102330.03;;;5.55;100.00
62418;BME280;48456;54.242;10.280;2023-02-11T07:03:03;102337.97;;;5.56;100.00
62418;BME280;48456;54.242;10.280;2023-02-11T07:05:30;102335.28;;;5.55;100.00
62418;BME280;48456;54.242;10.280;2023-02-11T07:07:56;102352.09;;;5.58;100.00
62418;BME280;48456;54.242;10.280;2023-02-11T07:10:22;102356.50;;;5.59;100.00
62418;BME280;48456;54.242;10.280;2023-02-11T07:12:49;102355.66;;;5.61;100.00
62418;BME280;48456;54.242;10.280;2023-02-11T07:15:15;102347.78;;;5.61;100.00
62418;BME280;48456;54.242;10.280;2023-02-11T07:17:42;102346.13;;;5.63;100.00
62418;BME280;48456;54.242;10.280;2023-02-11T07:20:08;102371.69;;;5.67;100.00
62418;BME280;48456;54.242;10.280;2023-02-11T07:22:37;102370.78;;;5.66;100.00
62418;BME280;48456;54.242;10.280;2023-02-11T07:25:03;102381.34;;;5.68;100.00
62418;BME280;48456;54.242;10.280;2023-02-11T07:27:30;102378.72;;;5.68;100.00
62418;BME280;48456;54.242;10.280;2023-02-11T07:29:56;102384.91;;;5.70;100.00
62418;BME280;48456;54.242;10.280;2023-02-11T07:32:23;102391.00;;;5.69;100.00
62418;BME280;48456;54.242;10.280;2023-02-11T07:34:49;102393.69;;;5.70;100.00
62418;BME280;48456;54.242;10.280;2023-02-11T07:37:15;102398.19;;;5.73;100.00
62418;BME280;48456;54.242;10.280;2023-02-11T07:39:42;102399.97;;;5.74;100.00
62418;BME280;48456;54.242;10.280;2023-02-11T07:42:08;102386.75;;;5.72;100.00
62418;BME280;48456;54.242;10.280;2023-02-11T07:44:34;102400.88;;;5.75;100.00
62418;BME280;48456;54.242;10.280;2023-02-11T07:47:02;102393.06;;;5.76;100.00
62418;BME280;48456;54.242;10.280;2023-02-11T07:49:28;102404.44;;;5.77;100.00
62418;BME280;48456;54.242;10.280;2023-02-11T07:51:55;102404.56;;;5.80;100.00
62418;BME280;48456;54.242;10.280;2023-02-11T07:54:21;102428.41;;;5.84;100.00
62418;BME280;48456;54.242;10.280;2023-02-11T07:56:47;102416.94;;;5.82;100.00
62418;BME280;48456;54.242;10.280;2023-02-11T07:59:14;102433.66;;;5.84;100.00
62418;BME280;48456;54.242;10.280;2023-02-11T08:01:40;102430.28;;;5.87;100.00
62418;BME280;48456;54.242;10.280;2023-02-11T08:04:06;102422.47;;;5.89;100.00
62418;BME280;48456;54.242;10.280;2023-02-11T08:06:33;102428.59;;;5.89;100.00
62418;BME280;48456;54.242;10.280;2023-02-11T08:09:03;102427.78;;;5.90;100.00
62418;BME280;48456;54.242;10.280;2023-02-11T08:11:30;102432.25;;;5.93;100.00
62418;BME280;48456;54.242;10.280;2023-02-11T08:13:57;102428.59;;;5.89;100.00
62418;BME280;48456;54.242;10.280;2023-02-11T08:16:24;102423.53;;;5.94;100.00
62418;BME280;48456;54.242;10.280;2023-02-11T08:18:51;102422.69;;;5.95;100.00
62418;BME280;48456;54.242;10.280;2023-02-11T08:21:18;102431.47;;;5.95;100.00
62418;BME280;48456;54.242;10.280;2023-02-11T08:23:45;102432.31;;;5.94;100.00
62418;BME280;48456;54.242;10.280;2023-02-11T08:26:13;102428.00;;;5.96;100.00
62418;BME280;48456;54.242;10.280;2023-02-11T08:28:40;102442.94;;;5.97;100.00
62418;BME280;48456;54.242;10.280;2023-02-11T08:31:42;102449.03;;;5.96;100.00
62418;BME280;48456;54.242;10.280;2023-02-11T08:34:00;102454.34;;;5.98;100.00
62418;BME280;48456;54.242;10.280;2023-02-11T08:36:28;102454.28;;;5.96;100.00
62418;BME280;48456;54.242;10.280;2023-02-11T08:38:55;102465.81;;;6.00;100.00
62418;BME280;48456;54.242;10.280;2023-02-11T08:41:37;102456.22;;;6.01;100.00
62418;BME280;48456;54.242;10.280;2023-02-11T08:44:03;102450.09;;;6.02;100.00
62418;BME280;48456;54.242;10.280;2023-02-11T08:46:30;102450.22;;;6.03;100.00
62418;BME280;48456;54.242;10.280;2023-02-11T08:48:56;102456.38;;;6.04;100.00
62418;BME280;48456;54.242;10.280;2023-02-11T08:51:27;102445.03;;;6.05;100.00
62418;BME280;48456;54.242;10.280;2023-02-11T08:53:53;102451.91;;;6.03;100.00
62418;BME280;48456;54.242;10.280;2023-02-11T08:56:20;102448.38;;;6.02;100.00
62418;BME280;48456;54.242;10.280;2023-02-11T08:58:48;102457.94;;;6.00;100.00
62418;BME280;48456;54.242;10.280;2023-02-11T09:01:16;102450.00;;;5.98;100.00
62418;BME280;48456;54.242;10.280;2023-02-11T09:03:43;102455.38;;;6.02;100.00
62418;BME280;48456;54.242;10.280;2023-02-11T09:06:10;102462.41;;;6.03;100.00
62418;BME280;48456;54.242;10.280;2023-02-11T09:08:37;102457.16;;;6.03;100.00
62418;BME280;48456;54.242;10.280;2023-02-11T09:11:04;102449.28;;;6.03;100.00
62418;BME280;48456;54.242;10.280;2023-02-11T09:13:31;102453.66;;;6.02;100.00
62418;BME280;48456;54.242;10.280;2023-02-11T09:15:58;102451.13;;;6.04;100.00
62418;BME280;48456;54.242;10.280;2023-02-11T09:18:24;102459.06;;;6.05;100.00
62418;BME280;48456;54.242;10.280;2023-02-11T09:20:51;102469.69;;;6.08;100.00
62418;BME280;48456;54.242;10.280;2023-02-11T09:23:18;102469.69;;;6.08;100.00
62418;BME280;48456;54.242;10.280;2023-02-11T09:25:44;102477.78;;;6.13;100.00
62418;BME280;48456;54.242;10.280;2023-02-11T09:28:10;102476.03;;;6.14;100.00
62418;BME280;48456;54.242;10.280;2023-02-11T09:30:37;102481.53;;;6.20;100.00
62418;BME280;48456;54.242;10.280;2023-02-11T09:33:04;102475.44;;;6.21;100.00
62418;BME280;48456;54.242;10.280;2023-02-11T09:35:30;102479.75;;;6.19;100.00
62418;BME280;48456;54.242;10.280;2023-02-11T09:37:57;102469.19;;;6.17;100.00
62418;BME280;48456;54.242;10.280;2023-02-11T09:40:24;102464.16;;;6.23;100.00
62418;BME280;48456;54.242;10.280;2023-02-11T09:42:59;102468.84;;;6.31;100.00
62418;BME280;48456;54.242;10.280;2023-02-11T09:45:29;102473.38;;;6.35;100.00
62418;BME280;48456;54.242;10.280;2023-02-11T09:50:32;102482.53;;;6.45;100.00
62418;BME280;48456;54.242;10.280;2023-02-11T09:55:33;102487.22;;;6.52;100.00
62418;BME280;48456;54.242;10.280;2023-02-11T09:58:03;102492.56;;;6.55;100.00
62418;BME280;48456;54.242;10.280;2023-02-11T10:00:32;102490.13;;;6.60;100.00
62418;BME280;48456;54.242;10.280;2023-02-11T10:06:00;102487.31;;;6.55;100.00
62418;BME280;48456;54.242;10.280;2023-02-11T10:08:48;102478.47;;;6.53;100.00
62418;BME280;48456;54.242;10.280;2023-02-11T10:14:08;102489.00;;;6.53;100.00
62418;BME280;48456;54.242;10.280;2023-02-11T10:21:51;102496.31;;;6.60;100.00
62418;BME280;48456;54.242;10.280;2023-02-11T10:24:21;102492.00;;;6.62;100.00
62418;BME280;48456;54.242;10.280;2023-02-11T10:26:48;102482.38;;;6.63;100.00
62418;BME280;48456;54.242;10.280;2023-02-11T10:29:23;102498.03;;;6.60;100.00
62418;BME280;48456;54.242;10.280;2023-02-11T10:31:51;102501.56;;;6.60;100.00
62418;BME280;48456;54.242;10.280;2023-02-11T10:34:20;102506.75;;;6.59;100.00
62418;BME280;48456;54.242;10.280;2023-02-11T10:36:46;102512.00;;;6.59;100.00
62418;BME280;48456;54.242;10.280;2023-02-11T10:41:44;102524.50;;;6.65;100.00
62418;BME280;48456;54.242;10.280;2023-02-11T10:44:29;102521.91;;;6.66;100.00
62418;BME280;48456;54.242;10.280;2023-02-11T10:46:56;102507.84;;;6.64;100.00
62418;BME280;48456;54.242;10.280;2023-02-11T10:49:35;102512.25;;;6.65;100.00
62418;BME280;48456;54.242;10.280;2023-02-11T10:54:37;102527.97;;;6.63;100.00
62418;BME280;48456;54.242;10.280;2023-02-11T10:57:03;102535.13;;;6.68;100.00
62418;BME280;48456;54.242;10.280;2023-02-11T10:59:30;102548.41;;;6.71;100.00
62418;BME280;48456;54.242;10.280;2023-02-11T11:02:01;102543.94;;;6.68;100.00
62418;BME280;48456;54.242;10.280;2023-02-11T11:06:57;102534.75;;;6.80;100.00
62418;BME280;48456;54.242;10.280;2023-02-11T11:09:42;102524.22;;;6.80;100.00
62418;BME280;48456;54.242;10.280;2023-02-11T11:14:57;102513.88;;;6.84;100.00
62418;BME280;48456;54.242;10.280;2023-02-11T11:17:24;102495.84;;;6.95;100.00
62418;BME280;48456;54.242;10.280;2023-02-11T11:22:39;102520.66;;;7.02;100.00
62418;BME280;48456;54.242;10.280;2023-02-11T11:25:28;102524.41;;;7.07;100.00
62418;BME280;48456;54.242;10.280;2023-02-11T11:27:53;102525.06;;;7.01;100.00
62418;BME280;48456;54.242;10.280;2023-02-11T11:30:21;102520.66;;;7.02;100.00
62418;BME280;48456;54.242;10.280;2023-02-11T11:32:48;102527.13;;;7.10;100.00
62418;BME280;48456;54.242;10.280;2023-02-11T11:35:28;102536.31;;;7.22;100.00
62418;BME280;48456;54.242;10.280;2023-02-11T11:37:59;102517.84;;;7.20;100.00
62418;BME280;48456;54.242;10.280;2023-02-11T11:40:28;102538.72;;;7.15;100.00
62418;BME280;48456;54.242;10.280;2023-02-11T11:43:06;102540.81;;;7.24;100.00
62418;BME280;48456;54.242;10.280;2023-02-11T11:45:32;102547.50;;;7.16;100.00
62418;BME280;48456;54.242;10.280;2023-02-11T11:52:59;102546.00;;;7.23;100.00
62418;BME280;48456;54.242;10.280;2023-02-11T11:55:31;102543.84;;;7.35;100.00
62418;BME280;48456;54.242;10.280;2023-02-11T11:57:58;102545.81;;;7.41;100.00
62418;BME280;48456;54.242;10.280;2023-02-11T12:05:26;102545.25;;;7.50;100.00
62418;BME280;48456;54.242;10.280;2023-02-11T12:25:43;102575.81;;;7.69;100.00
62418;BME280;48456;54.242;10.280;2023-02-11T12:47:23;102578.19;;;7.87;100.00
62418;BME280;48456;54.242;10.280;2023-02-11T12:50:01;102589.22;;;8.01;100.00
62418;BME280;48456;54.242;10.280;2023-02-11T12:52:36;102586.09;;;8.13;100.00
62418;BME280;48456;54.242;10.280;2023-02-11T12:55:24;102594.06;;;8.15;100.00
62418;BME280;48456;54.242;10.280;2023-02-11T12:57:51;102596.66;;;8.13;100.00
62418;BME280;48456;54.242;10.280;2023-02-11T13:00:22;102590.63;;;8.16;100.00
62418;BME280;48456;54.242;10.280;2023-02-11T13:05:30;102589.22;;;8.01;100.00
62418;BME280;48456;54.242;10.280;2023-02-11T13:08:03;102596.28;;;8.02;100.00
62418;BME280;48456;54.242;10.280;2023-02-11T13:10:32;102588.22;;;7.98;100.00
62418;BME280;48456;54.242;10.280;2023-02-11T13:12:59;102595.94;;;7.93;100.00
62418;BME280;48456;54.242;10.280;2023-02-11T13:15:42;102601.94;;;7.89;100.00
62418;BME280;48456;54.242;10.280;2023-02-11T13:20:57;102617.63;;;7.84;100.00
62418;BME280;48456;54.242;10.280;2023-02-11T13:23:40;102614.84;;;7.81;100.00
62418;BME280;48456;54.242;10.280;2023-02-11T13:26:28;102612.09;;;7.78;100.00
62418;BME280;48456;54.242;10.280;2023-02-11T13:29:05;102608.63;;;7.79;100.00
62418;BME280;48456;54.242;10.280;2023-02-11T13:31:35;102606.78;;;7.76;100.00
62418;BME280;48456;54.242;10.280;2023-02-11T13:34:01;102609.47;;;7.78;100.00
62418;BME280;48456;54.242;10.280;2023-02-11T13:36:29;102616.53;;;7.79;100.00
62418;BME280;48456;54.242;10.280;2023-02-11T13:38:58;102619.22;;;7.80;100.00
62418;BME280;48456;54.242;10.280;2023-02-11T13:41:46;102616.59;;;7.80;100.00
62418;BME280;48456;54.242;10.280;2023-02-11T13:44:19;102621.91;;;7.82;100.00
62418;BME280;48456;54.242;10.280;2023-02-11T13:46:58;102628.75;;;7.77;100.00
62418;BME280;48456;54.242;10.280;2023-02-11T13:49:29;102637.59;;;7.79;100.00
62418;BME280;48456;54.242;10.280;2023-02-11T13:51:56;102643.72;;;7.78;100.00
62418;BME280;48456;54.242;10.280;2023-02-11T13:54:25;102646.06;;;7.70;100.00
62418;BME280;48456;54.242;10.280;2023-02-11T14:02:17;102640.56;;;7.64;100.00
62418;BME280;48456;54.242;10.280;2023-02-11T14:11:08;102644.94;;;7.63;100.00
62418;BME280;48456;54.242;10.280;2023-02-11T14:21:23;102655.44;;;7.62;100.00
62418;BME280;48456;54.242;10.280;2023-02-11T14:26:33;102671.28;;;7.63;100.00
62418;BME280;48456;54.242;10.280;2023-02-11T14:29:18;102678.47;;;7.67;100.00
62418;BME280;48456;54.242;10.280;2023-02-11T14:34:32;102684.16;;;7.78;100.00
62418;BME280;48456;54.242;10.280;2023-02-11T14:37:12;102693.72;;;7.76;100.00
62418;BME280;48456;54.242;10.280;2023-02-11T14:39:47;102698.03;;;7.74;100.00
62418;BME280;48456;54.242;10.280;2023-02-11T14:42:20;102696.84;;;7.66;100.00
62418;BME280;48456;54.242;10.280;2023-02-11T14:44:48;102696.91;;;7.67;100.00
62418;BME280;48456;54.242;10.280;2023-02-11T14:47:20;102714.31;;;7.64;100.00
62418;BME280;48456;54.242;10.280;2023-02-11T14:49:48;102713.44;;;7.63;100.00
62418;BME280;48456;54.242;10.280;2023-02-11T14:52:22;102710.81;;;7.63;100.00
62418;BME280;48456;54.242;10.280;2023-02-11T14:54:50;102720.63;;;7.67;100.00
62418;BME280;48456;54.242;10.280;2023-02-11T14:57:19;102707.50;;;7.69;100.00
62418;BME280;48456;54.242;10.280;2023-02-11T15:00:20;102704.16;;;7.73;100.00
62418;BME280;48456;54.242;10.280;2023-02-11T15:02:38;102705.16;;;7.77;100.00
62418;BME280;48456;54.242;10.280;2023-02-11T15:07:45;102720.41;;;7.86;100.00
62418;BME280;48456;54.242;10.280;2023-02-11T15:10:45;102732.69;;;7.85;100.00
62418;BME280;48456;54.242;10.280;2023-02-11T15:13:04;102728.28;;;7.84;100.00
62418;BME280;48456;54.242;10.280;2023-02-11T15:15:31;102730.91;;;7.84;100.00
62418;BME280;48456;54.242;10.280;2023-02-11T15:17:58;102741.47;;;7.86;100.00
62418;BME280;48456;54.242;10.280;2023-02-11T15:20:27;102735.41;;;7.87;100.00
62418;BME280;48456;54.242;10.280;2023-02-11T15:22:55;102740.75;;;7.90;100.00
62418;BME280;48456;54.242;10.280;2023-02-11T15:25:22;102732.81;;;7.88;100.00
62418;BME280;48456;54.242;10.280;2023-02-11T15:27:50;102727.44;;;7.85;100.00
62418;BME280;48456;54.242;10.280;2023-02-11T15:32:47;102728.88;;;7.77;100.00
62418;BME280;48456;54.242;10.280;2023-02-11T15:35:14;102739.41;;;7.77;100.00
62418;BME280;48456;54.242;10.280;2023-02-11T15:37:40;102746.34;;;7.75;100.00
62418;BME280;48456;54.242;10.280;2023-02-11T15:40:18;102747.13;;;7.72;100.00
62418;BME280;48456;54.242;10.280;2023-02-11T15:43:07;102749.66;;;7.69;100.00
62418;BME280;48456;54.242;10.280;2023-02-11T15:45:35;102756.66;;;7.69;100.00
62418;BME280;48456;54.242;10.280;2023-02-11T15:48:08;102749.47;;;7.64;100.00
62418;BME280;48456;54.242;10.280;2023-02-11T15:50:36;102760.94;;;7.66;100.00
62418;BME280;48456;54.242;10.280;2023-02-11T15:55:50;102744.78;;;7.57;100.00
62418;BME280;48456;54.242;10.280;2023-02-11T15:58:17;102755.22;;;7.54;100.00
62418;BME280;48456;54.242;10.280;2023-02-11T16:00:45;102759.28;;;7.46;100.00
62418;BME280;48456;54.242;10.280;2023-02-11T16:03:19;102759.78;;;7.37;100.00
62418;BME280;48456;54.242;10.280;2023-02-11T16:05:46;102762.06;;;7.27;100.00
62418;BME280;48456;54.242;10.280;2023-02-11T16:08:22;102779.34;;;7.21;100.00
62418;BME280;48456;54.242;10.280;2023-02-11T16:10:56;102781.75;;;7.16;100.00
62418;BME280;48456;54.242;10.280;2023-02-11T16:13:24;102788.72;;;7.14;100.00
62418;BME280;48456;54.242;10.280;2023-02-11T16:15:55;102787.03;;;7.16;100.00
62418;BME280;48456;54.242;10.280;2023-02-11T16:21:02;102787.09;;;7.18;100.00
62418;BME280;48456;54.242;10.280;2023-02-11T16:23:32;102779.19;;;7.18;100.00
62418;BME280;48456;54.242;10.280;2023-02-11T16:26:01;102784.47;;;7.18;100.00
62418;BME280;48456;54.242;10.280;2023-02-11T16:28:30;102775.59;;;7.15;100.00
62418;BME280;48456;54.242;10.280;2023-02-11T16:30:57;102769.31;;;7.12;100.00
62418;BME280;48456;54.242;10.280;2023-02-11T16:33:27;102780.53;;;7.08;100.00
62418;BME280;48456;54.242;10.280;2023-02-11T16:35:54;102785.63;;;7.03;100.00
62418;BME280;48456;54.242;10.280;2023-02-11T16:38:20;102802.06;;;6.97;100.00
62418;BME280;48456;54.242;10.280;2023-02-11T16:40:46;102819.34;;;6.92;100.00
62418;BME280;48456;54.242;10.280;2023-02-11T16:43:17;102814.84;;;6.89;100.00
62418;BME280;48456;54.242;10.280;2023-02-11T16:45:43;102820.88;;;6.87;100.00
62418;BME280;48456;54.242;10.280;2023-02-11T16:48:11;102825.25;;;6.86;100.00
62418;BME280;48456;54.242;10.280;2023-02-11T16:50:39;102826.03;;;6.84;100.00
62418;BME280;48456;54.242;10.280;2023-02-11T16:53:08;102834.72;;;6.83;100.00
62418;BME280;48456;54.242;10.280;2023-02-11T16:55:35;102825.06;;;6.82;100.00
62418;BME280;48456;54.242;10.280;2023-02-11T16:58:01;102826.78;;;6.81;100.00
62418;BME280;48456;54.242;10.280;2023-02-11T17:00:28;102839.13;;;6.82;100.00
62418;BME280;48456;54.242;10.280;2023-02-11T17:02:55;102839.91;;;6.81;100.00
62418;BME280;48456;54.242;10.280;2023-02-11T17:05:21;102850.50;;;6.83;100.00
62418;BME280;48456;54.242;10.280;2023-02-11T17:07:50;102854.81;;;6.81;100.00
62418;BME280;48456;54.242;10.280;2023-02-11T17:10:18;102850.25;;;6.76;100.00
62418;BME280;48456;54.242;10.280;2023-02-11T17:12:45;102856.22;;;6.72;100.00
62418;BME280;48456;54.242;10.280;2023-02-11T17:15:11;102859.47;;;6.67;100.00
62418;BME280;48456;54.242;10.280;2023-02-11T17:17:38;102868.03;;;6.62;100.00
62418;BME280;48456;54.242;10.280;2023-02-11T17:20:04;102879.31;;;6.60;100.00
62418;BME280;48456;54.242;10.280;2023-02-11T17:22:31;102877.53;;;6.59;100.00
62418;BME280;48456;54.242;10.280;2023-02-11T17:24:57;102888.84;;;6.58;100.00
62418;BME280;48456;54.242;10.280;2023-02-11T17:27:24;102890.47;;;6.54;100.00
62418;BME280;48456;54.242;10.280;2023-02-11T17:29:50;102894.69;;;6.50;100.00
62418;BME280;48456;54.242;10.280;2023-02-11T17:32:16;102886.56;;;6.46;100.00